sensor_id;sensor_type;location;lat;lon;timestamp;pressure;altitude;pressure_sealevel;temperature;humidity
11710;BME280;5911;51.036;6.972;2023-02-13T00:01:00;102879.44;;;9.88;100.00
11710;BME280;5911;51.036;6.972;2023-02-13T00:03:28;102881.16;;;9.90;100.00
11710;BME280;5911;51.036;6.972;2023-02-13T00:05:57;102878.47;;;9.91;100.00
11710;BME280;5911;51.036;6.972;2023-02-13T00:08:25;102875.16;;;9.86;100.00
11710;BME280;5911;51.036;6.972;2023-02-13T00:10:53;102879.44;;;9.88;100.00
11710;BME280;5911;51.036;6.972;2023-02-13T00:13:21;102881.09;;;9.91;100.00
11710;BME280;5911;51.036;6.972;2023-02-13T00:16:00;102874.19;;;9.88;100.00
11710;BME280;5911;51.036;6.972;2023-02-13T00:18:32;102861.25;;;9.82;100.00
11710;BME280;5911;51.036;6.972;2023-02-13T00:21:04;102864.47;;;9.89;100.00
11710;BME280;5911;51.036;6.972;2023-02-13T00:23:33;102866.44;;;9.84;100.00
11710;BME280;5911;51.036;6.972;2023-02-13T00:26:04;102873.38;;;9.86;100.00
11710;BME280;5911;51.036;6.972;2023-02-13T00:28:32;102848.06;;;9.82;100.00
11710;BME280;5911;51.036;6.972;2023-02-13T00:31:04;102862.72;;;9.90;100.00
11710;BME280;5911;51.036;6.972;2023-02-13T00:33:32;102839.41;;;9.79;100.00
11710;BME280;5911;51.036;6.972;2023-02-13T00:36:07;102848.97;;;9.81;100.00
11710;BME280;5911;51.036;6.972;2023-02-13T00:38:36;102853.09;;;9.88;100.00
11710;BME280;5911;51.036;6.972;2023-02-13T00:41:04;102856.50;;;9.91;100.00
11710;BME280;5911;51.036;6.972;2023-02-13T00:43:33;102852.09;;;9.91;100.00
11710;BME280;5911;51.036;6.972;2023-02-13T00:46:02;102856.50;;;9.91;100.00
11710;BME280;5911;51.036;6.972;2023-02-13T00:48:31;102842.66;;;9.85;100.00
11710;BME280;5911;51.036;6.972;2023-02-13T00:51:00;102847.75;;;9.90;100.00
11710;BME280;5911;51.036;6.972;2023-02-13T00:53:30;102833.22;;;9.80;100.00
11710;BME280;5911;51.036;6.972;2023-02-13T00:55:59;102839.09;;;9.86;100.00
11710;BME280;5911;51.036;6.972;2023-02-13T00:58:27;102834.75;;;9.85;100.00
11710;BME280;5911;51.036;6.972;2023-02-13T01:00:56;102848.72;;;9.87;100.00
11710;BME280;5911;51.036;6.972;2023-02-13T01:03:24;102837.53;;;9.82;100.00
11710;BME280;5911;51.036;6.972;2023-02-13T01:05:55;102842.59;;;9.87;100.00
11710;BME280;5911;51.036;6.972;2023-02-13T01:08:24;102845.44;;;9.82;100.00
11710;BME280;5911;51.036;6.972;2023-02-13T01:10:55;102842.66;;;9.85;100.00
11710;BME280;5911;51.036;6.972;2023-02-13T01:13:24;102844.50;;;9.83;100.00
11710;BME280;5911;51.036;6.972;2023-02-13T01:15:52;102839.09;;;9.86;100.00
11710;BME280;5911;51.036;6.972;2023-02-13T01:18:20;102839.34;;;9.80;100.00
11710;BME280;5911;51.036;6.972;2023-02-13T01:20:56;102837.53;;;9.82;100.00
11710;BME280;5911;51.036;6.972;2023-02-13T01:23:24;102839.09;;;9.86;100.00
11710;BME280;5911;51.036;6.972;2023-02-13T01:25:52;102841.69;;;9.88;100.00
11710;BME280;5911;51.036;6.972;2023-02-13T01:28:21;102839.09;;;9.86;100.00
11710;BME280;5911;51.036;6.972;2023-02-13T01:30:53;102832.13;;;9.85;100.00
11710;BME280;5911;51.036;6.972;2023-02-13T01:33:23;102844.44;;;9.85;100.00
11710;BME280;5911;51.036;6.972;2023-02-13T01:35:51;102812.56;;;9.71;100.00
11710;BME280;5911;51.036;6.972;2023-02-13T01:38:19;102840.03;;;9.85;100.00
11710;BME280;5911;51.036;6.972;2023-02-13T01:40:49;102835.69;;;9.84;100.00
11710;BME280;5911;51.036;6.972;2023-02-13T01:43:18;102835.69;;;9.84;100.00
11710;BME280;5911;51.036;6.972;2023-02-13T01:45:53;102828.75;;;9.82;100.00
11710;BME280;5911;51.036;6.972;2023-02-13T01:48:23;102829.69;;;9.81;100.00
11710;BME280;5911;51.036;6.972;2023-02-13T01:50:54;102822.50;;;9.84;100.00
11710;BME280;5911;51.036;6.972;2023-02-13T01:53:26;102833.22;;;9.80;100.00
11710;BME280;5911;51.036;6.972;2023-02-13T01:56:00;102832.31;;;9.81;100.00
11710;BME280;5911;51.036;6.972;2023-02-13T01:58:33;102832.38;;;9.79;100.00
11710;BME280;5911;51.036;6.972;2023-02-13T02:01:05;102803.13;;;9.65;100.00
11710;BME280;5911;51.036;6.972;2023-02-13T02:03:36;102827.09;;;9.79;100.00
11710;BME280;5911;51.036;6.972;2023-02-13T02:06:11;102836.78;;;9.79;100.00
11710;BME280;5911;51.036;6.972;2023-02-13T02:08:41;102831.50;;;9.79;100.00
11710;BME280;5911;51.036;6.972;2023-02-13T02:11:21;102831.44;;;9.80;100.00
11710;BME280;5911;51.036;6.972;2023-02-13T02:13:53;102832.38;;;9.79;100.00
11710;BME280;5911;51.036;6.972;2023-02-13T02:16:31;102828.25;;;9.74;100.00
11710;BME280;5911;51.036;6.972;2023-02-13T02:19:04;102840.28;;;9.79;100.00
11710;BME280;5911;51.036;6.972;2023-02-13T02:21:57;102834.16;;;9.79;100.00
11710;BME280;5911;51.036;6.972;2023-02-13T02:24:51;102837.63;;;9.79;100.00
11710;BME280;5911;51.036;6.972;2023-02-13T02:30:41;102837.63;;;9.79;100.00
11710;BME280;5911;51.036;6.972;2023-02-13T02:33:23;102839.34;;;9.80;100.00
11710;BME280;5911;51.036;6.972;2023-02-13T02:36:09;102832.38;;;9.79;100.00
11710;BME280;5911;51.036;6.972;2023-02-13T02:38:53;102835.06;;;9.78;100.00
11710;BME280;5911;51.036;6.972;2023-02-13T02:41:34;102828.81;;;9.80;100.00
11710;BME280;5911;51.036;6.972;2023-02-13T02:44:30;102831.50;;;9.79;100.00
11710;BME280;5911;51.036;6.972;2023-02-13T02:47:19;102832.44;;;9.78;100.00
11710;BME280;5911;51.036;6.972;2023-02-13T02:50:32;102828.97;;;9.77;100.00
11710;BME280;5911;51.036;6.972;2023-02-13T02:53:14;102836.22;;;9.72;100.00
11710;BME280;5911;51.036;6.972;2023-02-13T02:55:49;102833.50;;;9.74;100.00
11710;BME280;5911;51.036;6.972;2023-02-13T02:58:20;102827.50;;;9.70;100.00
11710;BME280;5911;51.036;6.972;2023-02-13T03:01:11;102823.09;;;9.71;100.00
11710;BME280;5911;51.036;6.972;2023-02-13T03:03:59;102834.44;;;9.73;100.00
11710;BME280;5911;51.036;6.972;2023-02-13T03:06:48;102823.94;;;9.71;100.00
11710;BME280;5911;51.036;6.972;2023-02-13T03:09:21;102832.59;;;9.75;100.00
11710;BME280;5911;51.036;6.972;2023-02-13T03:12:08;102815.97;;;9.73;100.00
11710;BME280;5911;51.036;6.972;2023-02-13T03:14:54;102826.47;;;9.74;100.00
11710;BME280;5911;51.036;6.972;2023-02-13T03:17:22;102822.13;;;9.73;100.00
11710;BME280;5911;51.036;6.972;2023-02-13T03:20:21;102810.97;;;9.67;100.00
11710;BME280;5911;51.036;6.972;2023-02-13T03:23:14;102829.16;;;9.73;100.00
11710;BME280;5911;51.036;6.972;2023-02-13T03:26:02;102820.41;;;9.72;100.00
11710;BME280;5911;51.036;6.972;2023-02-13T03:28:37;102828.38;;;9.71;100.00
11710;BME280;5911;51.036;6.972;2023-02-13T03:31:31;102827.38;;;9.73;100.00
11710;BME280;5911;51.036;6.972;2023-02-13T03:34:03;102829.22;;;9.71;100.00
11710;BME280;5911;51.036;6.972;2023-02-13T03:36:46;102833.63;;;9.71;100.00
11710;BME280;5911;51.036;6.972;2023-02-13T03:39:43;102835.34;;;9.72;100.00
11710;BME280;5911;51.036;6.972;2023-02-13T03:42:19;102833.63;;;9.71;100.00
11710;BME280;5911;51.036;6.972;2023-02-13T03:44:52;102825.78;;;9.69;100.00
11710;BME280;5911;51.036;6.972;2023-02-13T03:47:36;102822.47;;;9.64;100.00
11710;BME280;5911;51.036;6.972;2023-02-13T03:50:07;102830.94;;;9.72;100.00
11710;BME280;5911;51.036;6.972;2023-02-13T03:52:40;102831.00;;;9.71;100.00
11710;BME280;5911;51.036;6.972;2023-02-13T03:55:14;102825.00;;;9.67;100.00
11710;BME280;5911;51.036;6.972;2023-02-13T03:58:06;102825.78;;;9.69;100.00
11710;BME280;5911;51.036;6.972;2023-02-13T04:00:55;102829.34;;;9.68;100.00
11710;BME280;5911;51.036;6.972;2023-02-13T04:03:32;102820.53;;;9.69;100.00
11710;BME280;5911;51.036;6.972;2023-02-13T04:06:05;102823.22;;;9.68;100.00
11710;BME280;5911;51.036;6.972;2023-02-13T04:08:34;102831.06;;;9.69;100.00
11710;BME280;5911;51.036;6.972;2023-02-13T04:11:09;102838.16;;;9.67;100.00
11710;BME280;5911;51.036;6.972;2023-02-13T04:13:44;102826.31;;;9.57;100.00
11710;BME280;5911;51.036;6.972;2023-02-13T04:16:17;102838.16;;;9.67;100.00
11710;BME280;5911;51.036;6.972;2023-02-13T04:18:47;102835.59;;;9.66;100.00
11710;BME280;5911;51.036;6.972;2023-02-13T04:21:16;102836.44;;;9.66;100.00
11710;BME280;5911;51.036;6.972;2023-02-13T04:23:44;102828.47;;;9.68;100.00
11710;BME280;5911;51.036;6.972;2023-02-13T04:26:16;102833.75;;;9.68;100.00
11710;BME280;5911;51.036;6.972;2023-02-13T04:28:44;102834.75;;;9.65;100.00
11710;BME280;5911;51.036;6.972;2023-02-13T04:31:13;102840.00;;;9.65;100.00
11710;BME280;5911;51.036;6.972;2023-02-13T04:33:41;102845.28;;;9.65;100.00
11710;BME280;5911;51.036;6.972;2023-02-13T04:36:09;102842.63;;;9.65;100.00
11710;BME280;5911;51.036;6.972;2023-02-13T04:38:36;102841.84;;;9.63;100.00
11710;BME280;5911;51.036;6.972;2023-02-13T04:41:04;102837.44;;;9.64;100.00
11710;BME280;5911;51.036;6.972;2023-02-13T04:43:33;102840.06;;;9.64;100.00
11710;BME280;5911;51.036;6.972;2023-02-13T04:46:01;102830.38;;;9.64;100.00
11710;BME280;5911;51.036;6.972;2023-02-13T04:48:29;102840.16;;;9.62;100.00
11710;BME280;5911;51.036;6.972;2023-02-13T04:50:57;102835.72;;;9.63;100.00
11710;BME280;5911;51.036;6.972;2023-02-13T04:53:25;102836.00;;;9.57;100.00
11710;BME280;5911;51.036;6.972;2023-02-13T04:55:53;102830.66;;;9.58;100.00
11710;BME280;5911;51.036;6.972;2023-02-13T04:58:20;102833.28;;;9.58;100.00
11710;BME280;5911;51.036;6.972;2023-02-13T05:00:50;102833.28;;;9.58;100.00
11710;BME280;5911;51.036;6.972;2023-02-13T05:03:18;102826.44;;;9.54;100.00
11710;BME280;5911;51.036;6.972;2023-02-13T05:05:47;102829.06;;;9.54;100.00
11710;BME280;5911;51.036;6.972;2023-02-13T05:08:15;102826.50;;;9.52;100.00
11710;BME280;5911;51.036;6.972;2023-02-13T05:10:42;102833.66;;;9.49;100.00
11710;BME280;5911;51.036;6.972;2023-02-13T05:13:10;102830.91;;;9.52;100.00
11710;BME280;5911;51.036;6.972;2023-02-13T05:15:38;102832.03;;;9.46;100.00
11710;BME280;5911;51.036;6.972;2023-02-13T05:18:08;102825.16;;;9.42;100.00
11710;BME280;5911;51.036;6.972;2023-02-13T05:20:35;102828.66;;;9.43;100.00
11710;BME280;5911;51.036;6.972;2023-02-13T05:23:03;102835.66;;;9.44;100.00
11710;BME280;5911;51.036;6.972;2023-02-13T05:25:49;102826.22;;;9.38;100.00
11710;BME280;5911;51.036;6.972;2023-02-13T05:28:17;102827.97;;;9.38;100.00
11710;BME280;5911;51.036;6.972;2023-02-13T05:31:02;102833.31;;;9.36;100.00
11710;BME280;5911;51.036;6.972;2023-02-13T05:33:31;102833.53;;;9.32;100.00
11710;BME280;5911;51.036;6.972;2023-02-13T05:35:59;102824.88;;;9.28;100.00
11710;BME280;5911;51.036;6.972;2023-02-13T05:38:27;102830.09;;;9.30;100.00
11710;BME280;5911;51.036;6.972;2023-02-13T05:40:57;102831.94;;;9.28;100.00
11710;BME280;5911;51.036;6.972;2023-02-13T05:43:26;102832.09;;;9.23;100.00
11710;BME280;5911;51.036;6.972;2023-02-13T05:46:09;102839.94;;;9.25;100.00
11710;BME280;5911;51.036;6.972;2023-02-13T05:48:38;102836.50;;;9.23;100.00
11710;BME280;5911;51.036;6.972;2023-02-13T05:51:07;102831.34;;;9.20;100.00
11710;BME280;5911;51.036;6.972;2023-02-13T05:53:34;102831.50;;;9.16;100.00
11710;BME280;5911;51.036;6.972;2023-02-13T05:56:04;102837.81;;;9.12;100.00
11710;BME280;5911;51.036;6.972;2023-02-13T05:58:38;102827.88;;;8.97;100.00
11710;BME280;5911;51.036;6.972;2023-02-13T06:01:08;102835.34;;;9.08;100.00
11710;BME280;5911;51.036;6.972;2023-02-13T06:03:38;102839.88;;;9.04;100.00
11710;BME280;5911;51.036;6.972;2023-02-13T06:06:06;102842.50;;;9.04;100.00
11710;BME280;5911;51.036;6.972;2023-02-13T06:08:34;102844.41;;;9.01;100.00
11710;BME280;5911;51.036;6.972;2023-02-13T06:11:03;102826.28;;;8.93;100.00
11710;BME280;5911;51.036;6.972;2023-02-13T06:13:31;102845.44;;;8.97;100.00
11710;BME280;5911;51.036;6.972;2023-02-13T06:15:58;102835.03;;;8.94;100.00
11710;BME280;5911;51.036;6.972;2023-02-13T06:18:26;102826.41;;;8.90;100.00
11710;BME280;5911;51.036;6.972;2023-02-13T06:20:55;102835.19;;;8.89;100.00
11710;BME280;5911;51.036;6.972;2023-02-13T06:23:25;102827.41;;;8.86;100.00
11710;BME280;5911;51.036;6.972;2023-02-13T06:25:53;102840.72;;;8.83;100.00
11710;BME280;5911;51.036;6.972;2023-02-13T06:28:20;102833.69;;;8.84;100.00
11710;BME280;5911;51.036;6.972;2023-02-13T06:30:48;102839.81;;;8.84;100.00
11710;BME280;5911;51.036;6.972;2023-02-13T06:33:16;102837.28;;;8.81;100.00
11710;BME280;5911;51.036;6.972;2023-02-13T06:35:44;102839.00;;;8.82;100.00
11710;BME280;5911;51.036;6.972;2023-02-13T06:38:13;102828.47;;;8.82;100.00
11710;BME280;5911;51.036;6.972;2023-02-13T06:40:44;102843.53;;;8.78;100.00
11710;BME280;5911;51.036;6.972;2023-02-13T06:43:12;102823.84;;;8.65;100.00
11710;BME280;5911;51.036;6.972;2023-02-13T06:45:41;102836.00;;;8.69;100.00
11710;BME280;5911;51.036;6.972;2023-02-13T06:48:09;102839.69;;;8.64;100.00
11710;BME280;5911;51.036;6.972;2023-02-13T06:50:36;102836.03;;;8.68;100.00
11710;BME280;5911;51.036;6.972;2023-02-13T06:53:04;102837.06;;;8.64;100.00
11710;BME280;5911;51.036;6.972;2023-02-13T06:55:34;102843.19;;;8.64;100.00
11710;BME280;5911;51.036;6.972;2023-02-13T06:58:05;102841.25;;;8.69;100.00
11710;BME280;5911;51.036;6.972;2023-02-13T07:00:33;102836.84;;;8.70;100.00
11710;BME280;5911;51.036;6.972;2023-02-13T07:03:04;102830.72;;;8.69;100.00
11710;BME280;5911;51.036;6.972;2023-02-13T07:05:32;102827.34;;;8.66;100.00
11710;BME280;5911;51.036;6.972;2023-02-13T07:08:00;102836.97;;;8.67;100.00
11710;BME280;5911;51.036;6.972;2023-02-13T07:10:28;102842.13;;;8.70;100.00
11710;BME280;5911;51.036;6.972;2023-02-13T07:12:57;102836.84;;;8.70;100.00
11710;BME280;5911;51.036;6.972;2023-02-13T07:15:32;102838.69;;;8.68;100.00
11710;BME280;5911;51.036;6.972;2023-02-13T07:18:00;102844.84;;;8.67;100.00
11710;BME280;5911;51.036;6.972;2023-02-13T07:20:28;102848.34;;;8.67;100.00
11710;BME280;5911;51.036;6.972;2023-02-13T07:22:56;102840.50;;;8.66;100.00
11710;BME280;5911;51.036;6.972;2023-02-13T07:25:25;102844.97;;;8.64;100.00
11710;BME280;5911;51.036;6.972;2023-02-13T07:27:54;102843.31;;;8.61;100.00
11710;BME280;5911;51.036;6.972;2023-02-13T07:30:23;102845.97;;;8.60;100.00
11710;BME280;5911;51.036;6.972;2023-02-13T07:32:51;102846.03;;;8.58;100.00
11710;BME280;5911;51.036;6.972;2023-02-13T07:35:18;102844.25;;;8.59;100.00
11710;BME280;5911;51.036;6.972;2023-02-13T07:37:46;102844.97;;;8.64;100.00
11710;BME280;5911;51.036;6.972;2023-02-13T07:40:14;102849.31;;;8.65;100.00
11710;BME280;5911;51.036;6.972;2023-02-13T07:42:42;102838.78;;;8.65;100.00
11710;BME280;5911;51.036;6.972;2023-02-13T07:45:09;102845.78;;;8.66;100.00
11710;BME280;5911;51.036;6.972;2023-02-13T07:47:38;102846.69;;;8.65;100.00
11710;BME280;5911;51.036;6.972;2023-02-13T07:50:07;102849.41;;;8.62;100.00
11710;BME280;5911;51.036;6.972;2023-02-13T07:52:35;102837.53;;;8.52;100.00
11710;BME280;5911;51.036;6.972;2023-02-13T07:55:03;102826.38;;;8.45;100.00
11710;BME280;5911;51.036;6.972;2023-02-13T07:57:46;102849.53;;;8.59;100.00
11710;BME280;5911;51.036;6.972;2023-02-13T08:00:15;102848.50;;;8.63;100.00
11710;BME280;5911;51.036;6.972;2023-02-13T08:02:45;102842.34;;;8.64;100.00
11710;BME280;5911;51.036;6.972;2023-02-13T08:05:13;102835.06;;;8.47;100.00
11710;BME280;5911;51.036;6.972;2023-02-13T08:07:41;102845.88;;;8.63;100.00
11710;BME280;5911;51.036;6.972;2023-02-13T08:10:11;102848.34;;;8.67;100.00
11710;BME280;5911;51.036;6.972;2023-02-13T08:12:57;102852.63;;;8.70;100.00
11710;BME280;5911;51.036;6.972;2023-02-13T08:15:25;102856.94;;;8.71;100.00
11710;BME280;5911;51.036;6.972;2023-02-13T08:17:54;102856.03;;;8.72;100.00
11710;BME280;5911;51.036;6.972;2023-02-13T08:20:22;102848.94;;;8.74;100.00
11710;BME280;5911;51.036;6.972;2023-02-13T08:22:50;102859.38;;;8.77;100.00
11710;BME280;5911;51.036;6.972;2023-02-13T08:25:18;102851.47;;;8.77;100.00
11710;BME280;5911;51.036;6.972;2023-02-13T08:27:46;102847.81;;;8.81;100.00
11710;BME280;5911;51.036;6.972;2023-02-13T08:30:14;102849.63;;;8.79;100.00
11710;BME280;5911;51.036;6.972;2023-02-13T08:32:42;102856.56;;;8.81;100.00
11710;BME280;5911;51.036;6.972;2023-02-13T08:35:21;102857.31;;;8.85;100.00
11710;BME280;5911;51.036;6.972;2023-02-13T08:37:52;102862.69;;;8.82;100.00
11710;BME280;5911;51.036;6.972;2023-02-13T08:40:22;102861.63;;;8.86;100.00
11710;BME280;5911;51.036;6.972;2023-02-13T08:42:51;102861.53;;;8.89;100.00
11710;BME280;5911;51.036;6.972;2023-02-13T08:45:20;102858.03;;;8.89;100.00
11710;BME280;5911;51.036;6.972;2023-02-13T08:47:47;102863.94;;;8.95;100.00
11710;BME280;5911;51.036;6.972;2023-02-13T08:50:20;102866.44;;;8.98;100.00
11710;BME280;5911;51.036;6.972;2023-02-13T08:52:48;102841.28;;;8.91;100.00
11710;BME280;5911;51.036;6.972;2023-02-13T08:55:16;102860.38;;;8.96;100.00
11710;BME280;5911;51.036;6.972;2023-02-13T08:57:44;102855.91;;;8.98;100.00
11710;BME280;5911;51.036;6.972;2023-02-13T09:00:12;102854.75;;;9.05;100.00
11710;BME280;5911;51.036;6.972;2023-02-13T09:02:41;102867.00;;;9.06;100.00
11710;BME280;5911;51.036;6.972;2023-02-13T09:05:08;102854.56;;;9.10;100.00
11710;BME280;5911;51.036;6.972;2023-02-13T09:07:37;102853.59;;;9.12;100.00
11710;BME280;5911;51.036;6.972;2023-02-13T09:10:06;102855.25;;;9.15;100.00
11710;BME280;5911;51.036;6.972;2023-02-13T09:12:34;102855.97;;;9.18;100.00
11710;BME280;5911;51.036;6.972;2023-02-13T09:15:02;102837.69;;;9.15;100.00
11710;BME280;5911;51.036;6.972;2023-02-13T09:17:30;102830.75;;;9.13;100.00
11710;BME280;5911;51.036;6.972;2023-02-13T09:19:58;102848.66;;;9.27;100.00
11710;BME280;5911;51.036;6.972;2023-02-13T09:22:25;102849.44;;;9.29;100.00
11710;BME280;5911;51.036;6.972;2023-02-13T09:24:55;102848.47;;;9.31;100.00
11710;BME280;5911;51.036;6.972;2023-02-13T09:27:24;102840.41;;;9.34;100.00
11710;BME280;5911;51.036;6.972;2023-02-13T09:29:52;102849.84;;;9.40;100.00
11710;BME280;5911;51.036;6.972;2023-02-13T09:32:20;102848.75;;;9.45;100.00
11710;BME280;5911;51.036;6.972;2023-02-13T09:34:47;102845.06;;;9.49;100.00
11710;BME280;5911;51.036;6.972;2023-02-13T09:37:15;102848.38;;;9.55;100.00
11710;BME280;5911;51.036;6.972;2023-02-13T09:39:43;102849.09;;;9.58;100.00
11710;BME280;5911;51.036;6.972;2023-02-13T09:42:18;102847.97;;;9.64;100.00
11710;BME280;5911;51.036;6.972;2023-02-13T09:44:50;102847.84;;;9.67;100.00
11710;BME280;5911;51.036;6.972;2023-02-13T09:47:24;102846.63;;;9.75;100.00
11710;BME280;5911;51.036;6.972;2023-02-13T09:49:59;102849.66;;;9.86;100.00
11710;BME280;5911;51.036;6.972;2023-02-13T09:52:32;102850.03;;;9.98;100.00
11710;BME280;5911;51.036;6.972;2023-02-13T09:55:13;102848.88;;;10.05;100.00
11710;BME280;5911;51.036;6.972;2023-02-13T09:57:52;102863.75;;;10.26;100.00
11710;BME280;5911;51.036;6.972;2023-02-13T10:00:29;102861.09;;;10.46;100.00
11710;BME280;5911;51.036;6.972;2023-02-13T10:03:20;102856.72;;;10.66;100.00
11710;BME280;5911;51.036;6.972;2023-02-13T10:05:59;102853.97;;;10.86;100.00
11710;BME280;5911;51.036;6.972;2023-02-13T10:08:42;102858.72;;;10.98;100.00
11710;BME280;5911;51.036;6.972;2023-02-13T10:11:24;102847.69;;;11.07;100.00
11710;BME280;5911;51.036;6.972;2023-02-13T10:14:10;102846.25;;;11.19;100.00
11710;BME280;5911;51.036;6.972;2023-02-13T10:16:43;102854.06;;;11.39;100.00
11710;BME280;5911;51.036;6.972;2023-02-13T10:19:17;102855.25;;;11.51;100.00
11710;BME280;5911;51.036;6.972;2023-02-13T10:21:52;102854.88;;;11.58;100.00
11710;BME280;5911;51.036;6.972;2023-02-13T10:24:29;102861.97;;;11.75;100.00
11710;BME280;5911;51.036;6.972;2023-02-13T10:27:01;102865.09;;;11.83;100.00
11710;BME280;5911;51.036;6.972;2023-02-13T10:29:37;102862.44;;;12.01;100.00
11710;BME280;5911;51.036;6.972;2023-02-13T10:32:29;102859.38;;;12.08;100.00
11710;BME280;5911;51.036;6.972;2023-02-13T10:35:03;102860.94;;;12.29;100.00
11710;BME280;5911;51.036;6.972;2023-02-13T10:37:41;102862.06;;;12.41;97.82
11710;BME280;5911;51.036;6.972;2023-02-13T10:40:10;102864.34;;;12.64;99.15
11710;BME280;5911;51.036;6.972;2023-02-13T10:42:43;102869.03;;;12.75;95.56
11710;BME280;5911;51.036;6.972;2023-02-13T10:45:43;102863.00;;;12.89;95.19
11710;BME280;5911;51.036;6.972;2023-02-13T10:48:25;102871.78;;;13.05;94.42
11710;BME280;5911;51.036;6.972;2023-02-13T10:51:03;102863.88;;;13.21;90.19
11710;BME280;5911;51.036;6.972;2023-02-13T10:53:42;102865.72;;;13.34;88.75
11710;BME280;5911;51.036;6.972;2023-02-13T10:56:24;102855.34;;;13.46;85.61
11710;BME280;5911;51.036;6.972;2023-02-13T10:59:05;102860.38;;;13.66;86.53
11710;BME280;5911;51.036;6.972;2023-02-13T11:01:43;102861.91;;;13.70;82.28
11710;BME280;5911;51.036;6.972;2023-02-13T11:04:17;102851.72;;;13.92;81.34
11710;BME280;5911;51.036;6.972;2023-02-13T11:06:51;102853.94;;;14.14;78.15
11710;BME280;5911;51.036;6.972;2023-02-13T11:09:21;102845.94;;;14.44;78.50
11710;BME280;5911;51.036;6.972;2023-02-13T11:11:50;102845.53;;;14.64;76.68
11710;BME280;5911;51.036;6.972;2023-02-13T11:14:19;102833.94;;;14.80;72.84
11710;BME280;5911;51.036;6.972;2023-02-13T11:16:53;102834.09;;;14.91;68.59
11710;BME280;5911;51.036;6.972;2023-02-13T11:19:25;102822.38;;;15.07;67.00
11710;BME280;5911;51.036;6.972;2023-02-13T11:21:56;102826.50;;;15.26;69.74
11710;BME280;5911;51.036;6.972;2023-02-13T11:24:27;102832.19;;;15.46;67.17
11710;BME280;5911;51.036;6.972;2023-02-13T11:27:00;102829.81;;;15.56;64.63
11710;BME280;5911;51.036;6.972;2023-02-13T11:29:32;102823.34;;;15.46;63.63
11710;BME280;5911;51.036;6.972;2023-02-13T11:32:19;102820.69;;;15.46;62.06
11710;BME280;5911;51.036;6.972;2023-02-13T11:34:48;102818.34;;;15.41;64.31
11710;BME280;5911;51.036;6.972;2023-02-13T11:37:21;102814.31;;;15.09;65.79
11710;BME280;5911;51.036;6.972;2023-02-13T11:39:51;102793.50;;;14.74;65.69
11710;BME280;5911;51.036;6.972;2023-02-13T11:42:25;102810.03;;;14.80;64.74
11710;BME280;5911;51.036;6.972;2023-02-13T11:44:56;102802.78;;;14.96;64.81
11710;BME280;5911;51.036;6.972;2023-02-13T11:47:40;102801.09;;;14.81;64.42
11710;BME280;5911;51.036;6.972;2023-02-13T11:50:25;102789.59;;;14.94;65.83
11710;BME280;5911;51.036;6.972;2023-02-13T11:52:56;102788.69;;;15.08;67.71
11710;BME280;5911;51.036;6.972;2023-02-13T11:55:30;102785.88;;;14.97;66.06
11710;BME280;5911;51.036;6.972;2023-02-13T11:58:00;102783.94;;;14.72;65.31
11710;BME280;5911;51.036;6.972;2023-02-13T12:00:32;102777.19;;;14.81;68.22
11710;BME280;5911;51.036;6.972;2023-02-13T12:03:23;102779.31;;;15.15;67.98
11710;BME280;5911;51.036;6.972;2023-02-13T12:06:00;102787.91;;;15.45;65.86
11710;BME280;5911;51.036;6.972;2023-02-13T12:08:29;102777.59;;;15.41;62.65
11710;BME280;5911;51.036;6.972;2023-02-13T12:10:58;102762.03;;;15.22;64.58
11710;BME280;5911;51.036;6.972;2023-02-13T12:13:30;102776.81;;;15.66;64.35
11710;BME280;5911;51.036;6.972;2023-02-13T12:16:01;102775.53;;;15.97;63.02
11710;BME280;5911;51.036;6.972;2023-02-13T12:18:35;102770.44;;;15.81;62.44
11710;BME280;5911;51.036;6.972;2023-02-13T12:21:16;102750.00;;;15.69;60.75
11710;BME280;5911;51.036;6.972;2023-02-13T12:23:51;102744.09;;;15.51;59.80
11710;BME280;5911;51.036;6.972;2023-02-13T12:26:28;102763.38;;;15.55;59.13
11710;BME280;5911;51.036;6.972;2023-02-13T12:29:24;102748.47;;;15.52;63.44
11710;BME280;5911;51.036;6.972;2023-02-13T12:32:10;102748.09;;;15.58;61.19
11710;BME280;5911;51.036;6.972;2023-02-13T12:34:57;102757.66;;;15.86;60.98
11710;BME280;5911;51.036;6.972;2023-02-13T12:37:40;102756.91;;;15.84;61.87
11710;BME280;5911;51.036;6.972;2023-02-13T12:40:24;102751.56;;;16.09;58.91
11710;BME280;5911;51.036;6.972;2023-02-13T12:43:13;102744.44;;;16.10;59.51
11710;BME280;5911;51.036;6.972;2023-02-13T12:45:52;102746.38;;;15.95;60.72
11710;BME280;5911;51.036;6.972;2023-02-13T12:48:33;102742.00;;;15.94;61.26
11710;BME280;5911;51.036;6.972;2023-02-13T12:51:20;102749.88;;;15.83;59.85
11710;BME280;5911;51.036;6.972;2023-02-13T12:54:09;102749.44;;;15.89;60.62
11710;BME280;5911;51.036;6.972;2023-02-13T12:56:50;102734.63;;;16.10;58.95
11710;BME280;5911;51.036;6.972;2023-02-13T12:59:31;102693.34;;;15.92;59.04
11710;BME280;5911;51.036;6.972;2023-02-13T13:02:23;102725.06;;;15.95;59.11
11710;BME280;5911;51.036;6.972;2023-02-13T13:05:03;102719.66;;;15.71;60.28
11710;BME280;5911;51.036;6.972;2023-02-13T13:07:53;102730.06;;;15.62;61.58
11710;BME280;5911;51.036;6.972;2023-02-13T13:10:34;102725.03;;;15.44;60.49
11710;BME280;5911;51.036;6.972;2023-02-13T13:13:14;102704.06;;;15.27;62.84
11710;BME280;5911;51.036;6.972;2023-02-13T13:15:48;102717.69;;;15.35;63.24
11710;BME280;5911;51.036;6.972;2023-02-13T13:18:27;102707.06;;;15.35;62.50
11710;BME280;5911;51.036;6.972;2023-02-13T13:21:02;102715.44;;;15.29;62.56
11710;BME280;5911;51.036;6.972;2023-02-13T13:23:36;102706.72;;;15.27;62.70
11710;BME280;5911;51.036;6.972;2023-02-13T13:26:14;102703.94;;;15.16;62.46
11710;BME280;5911;51.036;6.972;2023-02-13T13:28:49;102706.59;;;15.16;62.71
11710;BME280;5911;51.036;6.972;2023-02-13T13:31:19;102701.81;;;15.21;63.63
11710;BME280;5911;51.036;6.972;2023-02-13T13:33:49;102705.66;;;15.30;62.90
11710;BME280;5911;51.036;6.972;2023-02-13T13:36:22;102696.31;;;15.24;61.74